Time;durP1;ratioP1;P1;durP2;ratioP2;P2;SDS_P1;SDS_P2;PMS_P1;PMS_P2;Temp;Humidity;BMP_temperature;BMP_pressure;BME280_temperature;BME280_humidity;BME280_pressure;Samples;Min_cycle;Max_cycle;Signal;HPM_P1;HPM_P2
2023/01/11 00:00:12;;;;;;;;;;;8.40;99.90;;;;;;5064248;28;19919;-60
2023/01/11 00:02:37;;;;;;;;;;;8.30;99.90;;;;;;5068921;28;20332;-59
2023/01/11 00:05:04;;;;;;;;;;;8.30;99.90;;;;;;5068725;28;19912;-57
2023/01/11 00:07:29;;;;;;;;;;;8.30;99.90;;;;;;5067064;28;19989;-60
2023/01/11 00:09:56;;;;;;;;;;;8.30;99.90;;;;;;5067678;28;22269;-60
2023/01/11 00:12:22;;;;;;;;;;;8.40;99.90;;;;;;5065910;28;19913;-60
2023/01/11 00:14:47;;;;;;;;;;;8.40;99.90;;;;;;5069680;28;19912;-60
2023/01/11 00:17:12;;;;;;;;;;;8.30;99.90;;;;;;5070336;28;19916;-57
2023/01/11 00:19:38;;;;;;;;;;;8.40;99.90;;;;;;5071548;28;20305;-59
2023/01/11 00:22:03;;;;;;;;;;;8.40;99.90;;;;;;5068740;28;19951;-60
2023/01/11 00:24:29;;;;;;;;;;;8.40;99.90;;;;;;5073282;28;19912;-60
2023/01/11 00:26:54;;;;;;;;;;;8.40;99.90;;;;;;5071747;28;19936;-60
2023/01/11 00:29:20;;;;;;;;;;;8.40;99.90;;;;;;5068376;28;19962;-60
2023/01/11 00:31:45;;;;;;;;;;;8.50;99.90;;;;;;5067941;28;20305;-60
2023/01/11 00:34:11;;;;;;;;;;;8.60;99.90;;;;;;5073542;28;19916;-59
2023/01/11 00:36:36;;;;;;;;;;;8.70;99.90;;;;;;5071701;28;19916;-59
2023/01/11 00:39:02;;;;;;;;;;;8.80;99.90;;;;;;5071195;28;19916;-61
2023/01/11 00:49:40;;;;;;;;;;;9.00;99.90;;;;;;5066886;28;19919;-58
2023/01/11 00:52:07;;;;;;;;;;;9.00;99.90;;;;;;5063933;28;20483;-60
2023/01/11 00:54:34;;;;;;;;;;;9.00;99.90;;;;;;5066566;28;19951;-61
2023/01/11 00:56:59;;;;;;;;;;;9.00;99.90;;;;;;5068951;28;19957;-60
2023/01/11 00:59:24;;;;;;;;;;;9.10;99.90;;;;;;5069055;28;19959;-67
2023/01/11 01:01:50;;;;;;;;;;;9.10;99.90;;;;;;5068394;28;20012;-59
2023/01/11 01:04:15;;;;;;;;;;;9.10;99.90;;;;;;5071362;28;19919;-61
2023/01/11 01:06:41;;;;;;;;;;;9.10;99.90;;;;;;5069841;28;19939;-59
2023/01/11 01:09:06;;;;;;;;;;;9.10;99.90;;;;;;5069192;28;20533;-60
2023/01/11 01:11:32;;;;;;;;;;;9.20;99.90;;;;;;5071187;28;19913;-61
2023/01/11 01:16:41;;;;;;;;;;;9.10;99.90;;;;;;5070358;28;20424;-60
2023/01/11 01:19:07;;;;;;;;;;;9.10;99.90;;;;;;5071620;28;19912;-59
2023/01/11 01:21:33;;;;;;;;;;;9.20;99.90;;;;;;5068203;28;20397;-60
2023/01/11 01:23:58;;;;;;;;;;;9.20;99.90;;;;;;5069149;28;19996;-59
2023/01/11 01:26:24;;;;;;;;;;;9.20;99.90;;;;;;5068009;28;20421;-57
2023/01/11 01:28:49;;;;;;;;;;;9.20;99.90;;;;;;5067175;28;19943;-59
2023/01/11 01:31:15;;;;;;;;;;;9.20;99.90;;;;;;5066214;28;19928;-58
2023/01/11 01:33:41;;;;;;;;;;;9.20;99.90;;;;;;5070405;28;19927;-57
2023/01/11 01:36:06;;;;;;;;;;;9.30;99.90;;;;;;5069924;28;19916;-58
2023/01/11 01:38:32;;;;;;;;;;;9.30;99.90;;;;;;5069989;28;19917;-59
2023/01/11 01:40:57;;;;;;;;;;;9.40;99.90;;;;;;5064921;28;19935;-59
2023/01/11 01:43:42;;;;;;;;;;;9.40;99.90;;;;;;5071091;28;19919;-57
2023/01/11 01:46:08;;;;;;;;;;;9.40;99.90;;;;;;5066579;28;19912;-60
2023/01/11 01:48:35;;;;;;;;;;;9.40;99.90;;;;;;5070292;28;19913;-60
2023/01/11 01:51:00;;;;;;;;;;;9.40;99.90;;;;;;5068322;28;19919;-58
2023/01/11 01:53:34;;;;;;;;;;;9.40;99.90;;;;;;5071251;28;19918;-60
2023/01/11 01:56:02;;;;;;;;;;;9.50;99.90;;;;;;5068782;28;19917;-60
2023/01/11 01:58:30;;;;;;;;;;;9.50;99.90;;;;;;5068290;28;20305;-60
2023/01/11 02:00:55;;;;;;;;;;;9.50;99.90;;;;;;5068286;28;19948;-60
2023/01/11 02:03:23;;;;;;;;;;;9.40;99.90;;;;;;5068916;28;19952;-60
2023/01/11 02:05:50;;;;;;;;;;;9.40;99.90;;;;;;5068846;28;19952;-61
2023/01/11 02:08:23;;;;;;;;;;;9.50;99.90;;;;;;5067828;28;19913;-60
2023/01/11 02:10:49;;;;;;;;;;;9.50;99.90;;;;;;5066597;28;19923;-60
2023/01/11 02:13:15;;;;;;;;;;;9.50;99.90;;;;;;5067038;28;19913;-60
2023/01/11 02:15:40;;;;;;;;;;;9.50;99.90;;;;;;5068456;28;19919;-60
2023/01/11 02:18:09;;;;;;;;;;;9.50;99.90;;;;;;5071248;28;19931;-59
2023/01/11 02:20:41;;;;;;;;;;;9.50;99.90;;;;;;5069079;28;19916;-59
2023/01/11 02:23:25;;;;;;;;;;;9.50;99.90;;;;;;5068239;28;19920;-63
2023/01/11 02:26:17;;;;;;;;;;;9.50;99.90;;;;;;5068980;28;20378;-61
2023/01/11 02:28:43;;;;;;;;;;;9.50;99.90;;;;;;5085792;22;20021;-61
2023/01/11 02:31:14;;;;;;;;;;;9.50;99.90;;;;;;5070241;28;20378;-61
2023/01/11 02:33:43;;;;;;;;;;;9.60;99.90;;;;;;5067762;28;20286;-61
2023/01/11 02:36:23;;;;;;;;;;;9.60;99.90;;;;;;5069883;28;19973;-63
2023/01/11 02:38:55;;;;;;;;;;;9.60;99.90;;;;;;5069889;28;20365;-62
2023/01/11 02:41:25;;;;;;;;;;;9.70;99.90;;;;;;5075172;28;19917;-61
2023/01/11 02:46:46;;;;;;;;;;;9.70;99.90;;;;;;5070326;28;19919;-63
2023/01/11 02:49:27;;;;;;;;;;;9.70;99.90;;;;;;5072857;28;20386;-62
2023/01/11 02:51:54;;;;;;;;;;;9.70;99.90;;;;;;5068484;28;19913;-61
2023/01/11 02:54:20;;;;;;;;;;;9.70;99.90;;;;;;5063457;28;20127;-61
2023/01/11 02:56:47;;;;;;;;;;;9.70;99.90;;;;;;5065725;28;19970;-63
2023/01/11 02:59:16;;;;;;;;;;;9.70;99.90;;;;;;5064900;28;19916;-62
2023/01/11 03:01:51;;;;;;;;;;;9.80;99.90;;;;;;5060345;28;20007;-62
2023/01/11 03:04:30;;;;;;;;;;;9.70;99.90;;;;;;5067075;28;19947;-62
2023/01/11 03:06:58;;;;;;;;;;;9.70;99.90;;;;;;5065349;28;19952;-63
2023/01/11 03:09:37;;;;;;;;;;;9.80;99.90;;;;;;5067727;28;19939;-61
2023/01/11 03:15:02;;;;;;;;;;;9.80;99.90;;;;;;5063955;28;19919;-62
2023/01/11 03:17:33;;;;;;;;;;;9.80;99.90;;;;;;5064479;28;20020;-61
2023/01/11 03:20:28;;;;;;;;;;;9.80;99.90;;;;;;5061101;28;19913;-61
2023/01/11 03:23:14;;;;;;;;;;;9.70;99.90;;;;;;5047224;28;19992;-62
2023/01/11 03:25:46;;;;;;;;;;;9.70;99.90;;;;;;5064239;28;20019;-62
2023/01/11 03:28:18;;;;;;;;;;;9.70;99.90;;;;;;5065737;28;20021;-62
2023/01/11 03:31:00;;;;;;;;;;;9.70;99.90;;;;;;5065330;28;19932;-61
2023/01/11 03:33:37;;;;;;;;;;;9.70;99.90;;;;;;5067905;28;20293;-62
2023/01/11 03:36:16;;;;;;;;;;;9.70;99.90;;;;;;5068318;28;19919;-61
2023/01/11 03:38:47;;;;;;;;;;;9.70;99.90;;;;;;5063574;28;19920;-61
2023/01/11 03:41:16;;;;;;;;;;;9.70;99.90;;;;;;5064273;28;19913;-61
2023/01/11 03:43:43;;;;;;;;;;;9.70;99.90;;;;;;5063575;28;20324;-62
2023/01/11 03:46:11;;;;;;;;;;;9.70;99.90;;;;;;5064783;28;19922;-62
2023/01/11 03:48:42;;;;;;;;;;;9.70;99.90;;;;;;5066572;28;20382;-62
2023/01/11 03:51:09;;;;;;;;;;;9.80;99.90;;;;;;5065338;28;19927;-61
2023/01/11 03:53:37;;;;;;;;;;;9.80;99.90;;;;;;5064327;28;19993;-61
2023/01/11 03:56:04;;;;;;;;;;;9.80;99.90;;;;;;5075314;28;20290;-61
2023/01/11 03:58:30;;;;;;;;;;;9.80;99.90;;;;;;5073498;28;19984;-59
2023/01/11 04:00:56;;;;;;;;;;;9.80;99.90;;;;;;5075768;28;20425;-61
2023/01/11 04:03:22;;;;;;;;;;;9.80;99.90;;;;;;5073788;28;19931;-61
2023/01/11 04:05:50;;;;;;;;;;;9.90;99.90;;;;;;5070840;28;19909;-61
2023/01/11 04:08:16;;;;;;;;;;;9.90;99.90;;;;;;5075382;28;19943;-61
2023/01/11 04:10:41;;;;;;;;;;;9.90;99.90;;;;;;5074159;28;20374;-61
2023/01/11 04:13:06;;;;;;;;;;;9.90;99.90;;;;;;5071839;28;20378;-62
2023/01/11 04:15:33;;;;;;;;;;;10.10;99.90;;;;;;5074874;28;20294;-62
2023/01/11 04:18:03;;;;;;;;;;;10.10;99.90;;;;;;5072556;28;19970;-62
2023/01/11 04:20:39;;;;;;;;;;;10.40;99.90;;;;;;5071403;28;20328;-61
2023/01/11 04:23:05;;;;;;;;;;;10.60;99.90;;;;;;5065125;28;20294;-62
2023/01/11 04:25:30;;;;;;;;;;;10.50;99.90;;;;;;5075231;28;19918;-62
2023/01/11 04:27:56;;;;;;;;;;;10.80;99.90;;;;;;5069807;28;19913;-60
2023/01/11 04:30:21;;;;;;;;;;;10.80;99.90;;;;;;5071636;28;19917;-60
2023/01/11 04:32:47;;;;;;;;;;;10.90;99.90;;;;;;5078108;28;19919;-62
2023/01/11 04:35:12;;;;;;;;;;;10.90;99.90;;;;;;5086462;28;20356;-62
2023/01/11 04:37:38;;;;;;;;;;;10.90;99.90;;;;;;5078349;28;19916;-61
2023/01/11 04:40:04;;;;;;;;;;;10.90;99.90;;;;;;5073617;28;19912;-61
2023/01/11 04:42:29;;;;;;;;;;;10.90;99.90;;;;;;5063824;28;19959;-62
2023/01/11 04:44:55;;;;;;;;;;;10.90;99.90;;;;;;5068311;28;19928;-62
2023/01/11 04:47:22;;;;;;;;;;;10.90;99.90;;;;;;5059695;28;20016;-62
2023/01/11 04:49:48;;;;;;;;;;;10.90;99.90;;;;;;5073399;28;20285;-62
2023/01/11 04:52:14;;;;;;;;;;;10.90;99.90;;;;;;5089330;28;19912;-60
2023/01/11 04:54:40;;;;;;;;;;;10.80;99.90;;;;;;5080472;28;19954;-61
2023/01/11 04:57:06;;;;;;;;;;;10.80;99.90;;;;;;5069744;28;20021;-62
2023/01/11 04:59:31;;;;;;;;;;;10.70;99.90;;;;;;5067258;28;20535;-62
2023/01/11 05:01:57;;;;;;;;;;;10.70;99.90;;;;;;5068287;28;19912;-62
2023/01/11 05:04:22;;;;;;;;;;;10.80;99.90;;;;;;5077012;28;20003;-63
2023/01/11 05:06:47;;;;;;;;;;;10.80;99.90;;;;;;5081093;28;19908;-62
2023/01/11 05:09:14;;;;;;;;;;;10.80;99.90;;;;;;5086932;28;20396;-62
2023/01/11 05:11:39;;;;;;;;;;;10.90;99.90;;;;;;5075659;28;19913;-63
2023/01/11 05:14:05;;;;;;;;;;;10.80;99.90;;;;;;5066509;28;19936;-62
2023/01/11 05:16:30;;;;;;;;;;;10.80;99.90;;;;;;5067490;28;20436;-62
2023/01/11 05:18:57;;;;;;;;;;;10.80;99.90;;;;;;5066347;28;20410;-62
2023/01/11 05:21:24;;;;;;;;;;;10.70;99.90;;;;;;5061316;28;19928;-63
2023/01/11 05:23:49;;;;;;;;;;;10.80;99.90;;;;;;5068202;28;19913;-62
2023/01/11 05:26:22;;;;;;;;;;;10.70;99.90;;;;;;5068622;28;19913;-62
2023/01/11 05:28:48;;;;;;;;;;;10.70;99.90;;;;;;5064152;28;19917;-62
2023/01/11 05:31:14;;;;;;;;;;;10.70;99.90;;;;;;5068565;28;19920;-62
2023/01/11 05:33:40;;;;;;;;;;;10.70;99.90;;;;;;5078731;28;19962;-63
2023/01/11 05:36:06;;;;;;;;;;;10.70;99.90;;;;;;5078380;28;19975;-63
2023/01/11 05:38:32;;;;;;;;;;;10.70;99.90;;;;;;5077229;28;20409;-63
2023/01/11 05:40:59;;;;;;;;;;;10.70;99.90;;;;;;5093727;28;19908;-63
2023/01/11 05:43:25;;;;;;;;;;;10.70;99.90;;;;;;5072631;28;20306;-63
2023/01/11 05:45:50;;;;;;;;;;;10.80;99.90;;;;;;5071241;28;19920;-63
2023/01/11 05:48:16;;;;;;;;;;;10.70;99.90;;;;;;5079409;28;19912;-62
2023/01/11 05:50:41;;;;;;;;;;;10.70;99.90;;;;;;5070986;28;19912;-63
2023/01/11 05:53:07;;;;;;;;;;;10.70;99.90;;;;;;5068770;28;19917;-63
2023/01/11 05:55:33;;;;;;;;;;;10.70;99.90;;;;;;5079603;28;20011;-62
2023/01/11 05:57:58;;;;;;;;;;;10.70;99.90;;;;;;5067437;28;19970;-62
2023/01/11 06:00:24;;;;;;;;;;;10.70;99.90;;;;;;5071917;28;19920;-63
2023/01/11 06:02:49;;;;;;;;;;;10.70;99.90;;;;;;5072240;28;20386;-62
2023/01/11 06:05:15;;;;;;;;;;;10.70;99.90;;;;;;5064666;28;20453;-63
2023/01/11 06:07:40;;;;;;;;;;;10.70;99.90;;;;;;5071032;28;20353;-62
2023/01/11 06:10:06;;;;;;;;;;;10.70;99.90;;;;;;5074149;28;21840;-62
2023/01/11 06:12:31;;;;;;;;;;;10.70;99.90;;;;;;5075052;28;19912;-62
2023/01/11 06:14:57;;;;;;;;;;;10.70;99.90;;;;;;5073254;28;19912;-63
2023/01/11 06:17:25;;;;;;;;;;;10.70;99.90;;;;;;5068171;28;20344;-62
2023/01/11 06:19:51;;;;;;;;;;;10.70;99.90;;;;;;5064590;28;19916;-63
2023/01/11 06:22:16;;;;;;;;;;;10.70;99.90;;;;;;5066312;28;19926;-62
2023/01/11 06:24:42;;;;;;;;;;;10.60;99.90;;;;;;5069179;28;19913;-63
2023/01/11 06:27:07;;;;;;;;;;;10.60;99.90;;;;;;5069860;28;19920;-63
2023/01/11 06:29:33;;;;;;;;;;;10.60;99.90;;;;;;5069316;28;19916;-63
2023/01/11 06:31:58;;;;;;;;;;;10.70;99.90;;;;;;5086527;28;19958;-63
2023/01/11 06:34:24;;;;;;;;;;;10.70;99.90;;;;;;5080238;28;20329;-63
2023/01/11 06:36:49;;;;;;;;;;;10.70;99.90;;;;;;5083618;28;20106;-62
2023/01/11 06:39:15;;;;;;;;;;;10.80;99.90;;;;;;5082474;28;19912;-63
2023/01/11 06:41:40;;;;;;;;;;;10.90;99.90;;;;;;5072366;28;19915;-63
2023/01/11 06:44:06;;;;;;;;;;;11.00;99.90;;;;;;5077912;28;19973;-62
2023/01/11 06:46:31;;;;;;;;;;;10.90;99.90;;;;;;5077168;28;20365;-63
2023/01/11 06:48:57;;;;;;;;;;;10.90;99.90;;;;;;5091950;28;19913;-64
2023/01/11 06:51:22;;;;;;;;;;;10.90;99.90;;;;;;5081230;28;20017;-63
2023/01/11 06:53:47;;;;;;;;;;;10.90;99.90;;;;;;5081612;28;19908;-63
2023/01/11 06:56:14;;;;;;;;;;;10.90;99.90;;;;;;5075833;28;19913;-63
2023/01/11 06:58:40;;;;;;;;;;;10.90;99.90;;;;;;5087145;28;19921;-63
2023/01/11 07:01:05;;;;;;;;;;;10.90;99.90;;;;;;5076117;28;20003;-63
2023/01/11 07:03:31;;;;;;;;;;;10.90;99.90;;;;;;5072978;28;19944;-63
2023/01/11 07:05:56;;;;;;;;;;;10.90;99.90;;;;;;5068509;28;19916;-63
2023/01/11 07:08:23;;;;;;;;;;;11.00;99.90;;;;;;5086426;28;19908;-63
2023/01/11 07:10:48;;;;;;;;;;;10.90;99.90;;;;;;5073034;28;19967;-62
2023/01/11 07:13:17;;;;;;;;;;;11.00;99.90;;;;;;5067574;28;20338;-63
2023/01/11 07:15:43;;;;;;;;;;;11.10;99.90;;;;;;5078739;28;19909;-63
2023/01/11 07:18:10;;;;;;;;;;;11.00;99.90;;;;;;5072394;28;19912;-63
2023/01/11 07:20:35;;;;;;;;;;;11.00;99.90;;;;;;5071941;28;19999;-63
2023/01/11 07:23:01;;;;;;;;;;;11.00;99.90;;;;;;5082339;28;19959;-63
2023/01/11 07:25:27;;;;;;;;;;;11.10;99.90;;;;;;5075479;28;20294;-63
2023/01/11 07:27:56;;;;;;;;;;;11.20;99.90;;;;;;5092136;28;20301;-63
2023/01/11 07:30:22;;;;;;;;;;;11.30;99.90;;;;;;5091064;28;19923;-63
2023/01/11 07:32:48;;;;;;;;;;;11.20;99.90;;;;;;5076012;28;19912;-63
2023/01/11 07:35:13;;;;;;;;;;;11.20;99.90;;;;;;5079701;28;19915;-63
2023/01/11 07:37:40;;;;;;;;;;;11.10;99.90;;;;;;5076600;28;19912;-64
2023/01/11 07:40:06;;;;;;;;;;;11.10;99.90;;;;;;5086555;28;19930;-64
2023/01/11 07:45:15;;;;;;;;;;;11.30;99.90;;;;;;5075806;28;19943;-64
2023/01/11 07:47:41;;;;;;;;;;;11.30;99.90;;;;;;5075159;28;19912;-63
2023/01/11 07:50:06;;;;;;;;;;;11.20;99.90;;;;;;5076668;28;19995;-64
2023/01/11 07:52:32;;;;;;;;;;;11.30;99.90;;;;;;5077807;28;19909;-64
2023/01/11 07:55:01;;;;;;;;;;;11.20;99.90;;;;;;5077824;28;19994;-64
2023/01/11 07:57:27;;;;;;;;;;;11.20;99.90;;;;;;5078972;28;19920;-65
2023/01/11 07:59:53;;;;;;;;;;;11.20;99.90;;;;;;5072617;28;19919;-64
2023/01/11 08:02:18;;;;;;;;;;;11.20;99.90;;;;;;5075533;28;19916;-64
2023/01/11 08:04:44;;;;;;;;;;;11.10;99.90;;;;;;5072834;28;20847;-63
2023/01/11 08:07:09;;;;;;;;;;;11.10;99.90;;;;;;5076411;28;20361;-63
2023/01/11 08:09:35;;;;;;;;;;;11.20;99.90;;;;;;5083949;28;19932;-62
2023/01/11 08:14:44;;;;;;;;;;;11.10;99.90;;;;;;5068896;28;20340;-63
2023/01/11 08:17:11;;;;;;;;;;;11.20;99.90;;;;;;5069954;28;19916;-62
2023/01/11 08:19:37;;;;;;;;;;;11.10;99.90;;;;;;5073063;28;19955;-63
2023/01/11 08:22:03;;;;;;;;;;;11.10;99.90;;;;;;5073226;28;19955;-61
2023/01/11 08:24:28;;;;;;;;;;;11.10;99.90;;;;;;5071905;28;19912;-62
2023/01/11 08:26:53;;;;;;;;;;;11.10;99.90;;;;;;5076181;28;20431;-63
2023/01/11 08:29:19;;;;;;;;;;;11.10;99.90;;;;;;5090451;22;19907;-58
2023/01/11 08:31:45;;;;;;;;;;;11.10;99.90;;;;;;5094097;28;20006;-60
2023/01/11 08:34:11;;;;;;;;;;;11.10;99.90;;;;;;5095680;28;20414;-60
2023/01/11 08:36:36;;;;;;;;;;;11.10;99.90;;;;;;5092044;28;19970;-59
2023/01/11 08:39:02;;;;;;;;;;;11.10;99.90;;;;;;5092264;28;19913;-58
2023/01/11 08:41:28;;;;;;;;;;;11.10;99.90;;;;;;5078163;28;20336;-60
2023/01/11 08:43:53;;;;;;;;;;;11.10;99.90;;;;;;5075642;28;19913;-58
2023/01/11 08:46:18;;;;;;;;;;;11.10;99.90;;;;;;5073983;28;20054;-57
2023/01/11 08:48:47;;;;;;;;;;;11.10;99.90;;;;;;5079289;28;20024;-60
2023/01/11 08:51:13;;;;;;;;;;;11.10;99.90;;;;;;5088038;28;19912;-59
2023/01/11 08:53:39;;;;;;;;;;;11.00;99.90;;;;;;5076578;28;19928;-59
2023/01/11 08:56:04;;;;;;;;;;;11.00;99.90;;;;;;5085369;28;19908;-57
2023/01/11 08:58:30;;;;;;;;;;;11.10;99.90;;;;;;5074624;28;19924;-60
2023/01/11 09:01:01;;;;;;;;;;;11.10;99.90;;;;;;5084602;28;19958;-58
2023/01/11 09:03:27;;;;;;;;;;;11.00;99.90;;;;;;5075599;28;19924;-58
2023/01/11 09:05:55;;;;;;;;;;;11.10;99.90;;;;;;5073769;28;19966;-56
2023/01/11 09:08:21;;;;;;;;;;;11.10;99.90;;;;;;5074251;28;20023;-60
2023/01/11 09:10:47;;;;;;;;;;;11.10;99.90;;;;;;5076592;28;20352;-58
2023/01/11 09:13:12;;;;;;;;;;;11.10;99.90;;;;;;5072474;28;19956;-60
2023/01/11 09:15:37;;;;;;;;;;;11.00;99.90;;;;;;5079787;28;19916;-59
2023/01/11 09:18:04;;;;;;;;;;;11.00;99.90;;;;;;5074712;28;19924;-57
2023/01/11 09:20:29;;;;;;;;;;;11.00;99.90;;;;;;5078899;28;19913;-59
2023/01/11 09:22:55;;;;;;;;;;;11.00;99.90;;;;;;5073293;28;19917;-54
2023/01/11 09:25:20;;;;;;;;;;;11.00;99.90;;;;;;5069390;28;20035;-58
2023/01/11 09:27:47;;;;;;;;;;;10.90;99.90;;;;;;5070550;28;19920;-58
2023/01/11 09:30:13;;;;;;;;;;;10.90;99.90;;;;;;5068397;28;20301;-56
2023/01/11 09:32:39;;;;;;;;;;;10.90;99.90;;;;;;5074888;28;19919;-56
2023/01/11 09:35:05;;;;;;;;;;;10.90;99.90;;;;;;5072214;28;19920;-56
2023/01/11 09:37:30;;;;;;;;;;;10.90;99.90;;;;;;5069812;28;19922;-58
2023/01/11 09:39:58;;;;;;;;;;;10.90;99.90;;;;;;5070361;28;19912;-59
2023/01/11 09:42:36;;;;;;;;;;;11.00;99.90;;;;;;5074436;28;19993;-58
2023/01/11 09:45:05;;;;;;;;;;;11.00;99.90;;;;;;5068883;28;20340;-59
2023/01/11 09:47:39;;;;;;;;;;;11.00;99.90;;;;;;5070058;28;20371;-59
2023/01/11 09:50:15;;;;;;;;;;;11.00;99.90;;;;;;5067995;28;19928;-59
2023/01/11 09:52:42;;;;;;;;;;;11.00;99.90;;;;;;5077487;28;19983;-56
2023/01/11 09:55:18;;;;;;;;;;;11.00;99.90;;;;;;5067159;28;20381;-59
2023/01/11 09:57:44;;;;;;;;;;;11.00;99.90;;;;;;5062629;28;19982;-59
2023/01/11 10:00:30;;;;;;;;;;;11.00;99.90;;;;;;5067407;28;20351;-58
2023/01/11 10:02:58;;;;;;;;;;;11.00;99.90;;;;;;5059253;28;20568;-59
2023/01/11 10:05:34;;;;;;;;;;;11.00;99.90;;;;;;5068765;28;20290;-57
2023/01/11 10:07:59;;;;;;;;;;;11.00;99.90;;;;;;5068308;28;19918;-57
2023/01/11 10:10:25;;;;;;;;;;;11.00;99.90;;;;;;5068157;28;19917;-59
2023/01/11 10:13:10;;;;;;;;;;;11.10;99.90;;;;;;5068657;28;19916;-59
2023/01/11 10:15:38;;;;;;;;;;;11.00;99.90;;;;;;5069589;28;19924;-56
2023/01/11 10:18:03;;;;;;;;;;;11.00;99.90;;;;;;5071201;28;20329;-57
2023/01/11 10:20:34;;;;;;;;;;;11.00;99.90;;;;;;5068964;28;19920;-56
2023/01/11 10:23:05;;;;;;;;;;;11.00;99.90;;;;;;5068855;28;19920;-56
2023/01/11 10:25:40;;;;;;;;;;;11.00;99.90;;;;;;5067609;28;19998;-58
2023/01/11 10:28:07;;;;;;;;;;;11.00;99.90;;;;;;5068892;28;19920;-55
2023/01/11 10:33:33;;;;;;;;;;;11.00;99.90;;;;;;5072139;28;19921;-57
2023/01/11 10:36:24;;;;;;;;;;;11.00;99.90;;;;;;5066984;28;19921;-58
2023/01/11 10:39:16;;;;;;;;;;;11.00;99.90;;;;;;5072637;28;19931;-58
2023/01/11 10:41:51;;;;;;;;;;;11.10;99.90;;;;;;5065032;28;20011;-58
2023/01/11 10:44:27;;;;;;;;;;;11.10;99.90;;;;;;5065492;28;19916;-56
2023/01/11 10:46:54;;;;;;;;;;;11.00;99.90;;;;;;5071393;28;20297;-56
2023/01/11 10:49:25;;;;;;;;;;;11.00;99.90;;;;;;5073731;28;20340;-58
2023/01/11 10:51:54;;;;;;;;;;;11.00;99.90;;;;;;5075390;28;19916;-58
2023/01/11 10:54:22;;;;;;;;;;;10.90;99.90;;;;;;5067181;28;19916;-56
2023/01/11 10:56:50;;;;;;;;;;;10.90;99.90;;;;;;5068663;28;19913;-58
2023/01/11 10:59:23;;;;;;;;;;;10.80;99.90;;;;;;5066088;28;19921;-57
2023/01/11 11:01:53;;;;;;;;;;;10.80;99.90;;;;;;5061652;28;20304;-56
2023/01/11 11:04:28;;;;;;;;;;;10.80;99.90;;;;;;5065933;28;19913;-59
2023/01/11 11:07:13;;;;;;;;;;;10.70;99.90;;;;;;5064211;28;20373;-59
2023/01/11 11:09:53;;;;;;;;;;;10.70;99.90;;;;;;5067517;28;19923;-59
2023/01/11 11:12:23;;;;;;;;;;;10.60;99.90;;;;;;5067988;28;19932;-58
2023/01/11 11:14:56;;;;;;;;;;;10.60;99.90;;;;;;5068200;28;20278;-58
2023/01/11 11:17:29;;;;;;;;;;;10.60;99.90;;;;;;5068123;28;19916;-58
2023/01/11 11:19:56;;;;;;;;;;;10.50;99.90;;;;;;5071030;28;19916;-57
2023/01/11 11:22:21;;;;;;;;;;;10.50;99.90;;;;;;5071239;28;19916;-56
2023/01/11 11:24:48;;;;;;;;;;;10.40;99.90;;;;;;5069260;28;20362;-59
2023/01/11 11:27:17;;;;;;;;;;;10.50;99.90;;;;;;5080116;28;19912;-58
2023/01/11 11:29:47;;;;;;;;;;;10.50;99.90;;;;;;5068470;28;20358;-58
2023/01/11 11:32:17;;;;;;;;;;;10.40;99.90;;;;;;5075138;28;20270;-58
2023/01/11 11:34:46;;;;;;;;;;;10.50;99.90;;;;;;5069336;28;19916;-56
2023/01/11 11:37:19;;;;;;;;;;;10.40;99.90;;;;;;5065645;28;19964;-59
2023/01/11 11:39:46;;;;;;;;;;;10.40;99.90;;;;;;5064569;28;19922;-58
2023/01/11 11:42:15;;;;;;;;;;;10.40;99.90;;;;;;5075054;28;19919;-58
2023/01/11 11:44:41;;;;;;;;;;;10.30;99.90;;;;;;5054997;28;19912;-58
2023/01/11 11:47:13;;;;;;;;;;;10.30;99.90;;;;;;5069093;28;20296;-59
2023/01/11 11:49:40;;;;;;;;;;;10.30;99.90;;;;;;5074622;28;19916;-60
2023/01/11 11:52:10;;;;;;;;;;;10.30;99.90;;;;;;5067863;28;19916;-57
2023/01/11 11:54:39;;;;;;;;;;;10.30;99.90;;;;;;5069390;28;19923;-58
2023/01/11 11:57:16;;;;;;;;;;;10.20;99.90;;;;;;5068929;28;19990;-57
2023/01/11 11:59:46;;;;;;;;;;;10.10;99.90;;;;;;5063242;28;19912;-58
2023/01/11 12:02:20;;;;;;;;;;;10.20;99.90;;;;;;5073500;28;19916;-57
2023/01/11 12:04:47;;;;;;;;;;;10.20;99.90;;;;;;5069427;28;19913;-58
2023/01/11 12:07:20;;;;;;;;;;;10.10;99.90;;;;;;5067687;28;20425;-56
2023/01/11 12:09:59;;;;;;;;;;;10.20;99.90;;;;;;5072124;28;19908;-59
2023/01/11 12:12:25;;;;;;;;;;;10.20;99.90;;;;;;5073262;28;19913;-59
2023/01/11 12:15:05;;;;;;;;;;;10.20;99.90;;;;;;5072540;28;19924;-58
2023/01/11 12:17:31;;;;;;;;;;;10.20;99.90;;;;;;5075179;28;19959;-57
2023/01/11 12:19:56;;;;;;;;;;;10.20;99.90;;;;;;5072065;28;19948;-59
2023/01/11 12:22:23;;;;;;;;;;;10.20;99.90;;;;;;5074520;28;19908;-59
2023/01/11 12:25:20;;;;;;;;;;;10.20;99.90;;;;;;5074360;28;19966;-57
2023/01/11 12:27:49;;;;;;;;;;;10.30;99.90;;;;;;5054808;28;19951;-57
2023/01/11 12:30:18;;;;;;;;;;;10.40;99.90;;;;;;5072341;28;19920;-57
2023/01/11 12:32:56;;;;;;;;;;;10.40;99.90;;;;;;5073568;28;19960;-55
2023/01/11 12:35:30;;;;;;;;;;;10.40;99.90;;;;;;5074097;28;19912;-59
2023/01/11 12:38:14;;;;;;;;;;;10.40;99.90;;;;;;5072111;28;19920;-58
2023/01/11 12:41:00;;;;;;;;;;;10.40;99.90;;;;;;5074243;28;19909;-59
2023/01/11 12:43:33;;;;;;;;;;;10.50;99.90;;;;;;5069397;28;19920;-57
2023/01/11 12:46:15;;;;;;;;;;;10.50;99.90;;;;;;5075674;28;19935;-56
2023/01/11 12:48:59;;;;;;;;;;;10.50;99.90;;;;;;5073731;28;19914;-58
2023/01/11 12:51:43;;;;;;;;;;;10.50;99.90;;;;;;5077725;28;19974;-59
2023/01/11 12:54:17;;;;;;;;;;;10.60;99.90;;;;;;5073874;28;20011;-59
2023/01/11 12:56:42;;;;;;;;;;;10.80;99.90;;;;;;5073896;28;19909;-58
2023/01/11 12:59:21;;;;;;;;;;;10.90;99.90;;;;;;5070550;28;19916;-59
2023/01/11 13:02:05;;;;;;;;;;;11.10;99.90;;;;;;5073992;28;20336;-59
2023/01/11 13:04:38;;;;;;;;;;;11.20;99.90;;;;;;5076586;28;19965;-58
2023/01/11 13:07:22;;;;;;;;;;;11.40;99.90;;;;;;5067667;28;19989;-58
2023/01/11 13:10:04;;;;;;;;;;;11.60;99.90;;;;;;5071703;28;19961;-59
2023/01/11 13:12:36;;;;;;;;;;;11.60;99.90;;;;;;5072307;28;19966;-57
2023/01/11 13:15:04;;;;;;;;;;;11.70;99.90;;;;;;5073153;28;19935;-58
2023/01/11 13:17:30;;;;;;;;;;;11.90;99.90;;;;;;5072792;28;19920;-59
2023/01/11 13:20:01;;;;;;;;;;;12.10;99.90;;;;;;5078184;28;19916;-59
2023/01/11 13:22:28;;;;;;;;;;;12.00;99.90;;;;;;5073052;28;19943;-59
2023/01/11 13:24:55;;;;;;;;;;;12.00;99.90;;;;;;5073265;28;19930;-59
2023/01/11 13:27:21;;;;;;;;;;;12.00;99.90;;;;;;5071495;28;19952;-58
2023/01/11 13:29:49;;;;;;;;;;;11.90;99.90;;;;;;5072127;28;19962;-57
2023/01/11 13:32:17;;;;;;;;;;;12.00;99.90;;;;;;5071971;28;19915;-57
2023/01/11 13:34:54;;;;;;;;;;;12.00;99.90;;;;;;5077670;28;20004;-59
2023/01/11 13:37:38;;;;;;;;;;;12.00;99.90;;;;;;5072730;28;19952;-59
2023/01/11 13:40:15;;;;;;;;;;;12.10;99.90;;;;;;5073035;28;19915;-56
2023/01/11 13:42:43;;;;;;;;;;;12.10;99.90;;;;;;5066437;28;19912;-59
2023/01/11 13:45:11;;;;;;;;;;;12.00;99.90;;;;;;5071128;28;19913;-55
2023/01/11 13:47:40;;;;;;;;;;;12.00;99.90;;;;;;5071997;28;19912;-57
2023/01/11 13:50:25;;;;;;;;;;;12.00;99.90;;;;;;5078035;28;19919;-57
2023/01/11 13:52:59;;;;;;;;;;;12.00;99.90;;;;;;5072726;28;20004;-57
2023/01/11 13:55:29;;;;;;;;;;;11.90;99.90;;;;;;5071361;28;19958;-57
2023/01/11 13:57:58;;;;;;;;;;;12.00;99.90;;;;;;5070999;28;20294;-55
2023/01/11 14:00:33;;;;;;;;;;;12.00;99.90;;;;;;5071846;28;19913;-54
2023/01/11 14:03:09;;;;;;;;;;;12.00;99.90;;;;;;5077778;28;19912;-56
2023/01/11 14:05:40;;;;;;;;;;;11.80;99.90;;;;;;5072262;28;19913;-59
2023/01/11 14:08:25;;;;;;;;;;;11.70;99.90;;;;;;5071662;28;19912;-57
2023/01/11 14:11:08;;;;;;;;;;;11.70;99.90;;;;;;5072340;28;19948;-57
2023/01/11 14:16:29;;;;;;;;;;;11.50;99.90;;;;;;5072068;28;19936;-58
2023/01/11 14:18:57;;;;;;;;;;;11.60;99.90;;;;;;5076895;28;19924;-57
2023/01/11 14:21:29;;;;;;;;;;;11.60;99.90;;;;;;5065920;28;19916;-57
2023/01/11 14:23:55;;;;;;;;;;;11.60;99.90;;;;;;5072052;28;19916;-56
2023/01/11 14:26:39;;;;;;;;;;;11.50;99.90;;;;;;5064126;28;19912;-59
2023/01/11 14:29:09;;;;;;;;;;;11.50;99.90;;;;;;5071232;28;19915;-57
2023/01/11 14:31:53;;;;;;;;;;;11.40;99.90;;;;;;5075743;22;19929;-62
2023/01/11 14:34:26;;;;;;;;;;;11.40;99.90;;;;;;5045179;28;20111;-61
2023/01/11 14:36:54;;;;;;;;;;;11.40;99.90;;;;;;5043734;28;19939;-61
2023/01/11 14:39:23;;;;;;;;;;;11.40;99.90;;;;;;5047530;28;19912;-61
2023/01/11 14:41:51;;;;;;;;;;;11.40;99.90;;;;;;5037476;28;19921;-61
2023/01/11 14:44:16;;;;;;;;;;;11.30;99.90;;;;;;5046738;28;19913;-61
2023/01/11 14:46:48;;;;;;;;;;;11.30;99.90;;;;;;5043635;28;19974;-61
2023/01/11 14:49:22;;;;;;;;;;;11.30;99.90;;;;;;5045521;28;20151;-61
2023/01/11 14:51:54;;;;;;;;;;;11.20;99.90;;;;;;5042420;28;20699;-60
2023/01/11 14:54:23;;;;;;;;;;;11.20;99.90;;;;;;5041255;28;19914;-60
2023/01/11 14:56:50;;;;;;;;;;;11.10;99.90;;;;;;5047924;28;19913;-61
2023/01/11 14:59:25;;;;;;;;;;;11.10;99.90;;;;;;5040803;28;19963;-61